createdAt,value
2022-08-21T00:01:07.436Z,99082.69
2022-08-21T00:03:35.388Z,99072.72
2022-08-21T00:06:03.828Z,99072.94
2022-08-21T00:08:31.855Z,99069.47
2022-08-21T00:11:00.085Z,99071.25
2022-08-21T00:13:29.621Z,99061.94
2022-08-21T00:15:57.582Z,99060.19
2022-08-21T00:18:26.517Z,99058.41
2022-08-21T00:20:54.781Z,99050.88
2022-08-21T00:23:22.915Z,99053.47
2022-08-21T00:25:50.856Z,99047.53
2022-08-21T00:28:18.983Z,99047.53
2022-08-21T00:30:48.425Z,99040.56
2022-08-21T00:33:16.305Z,99044.75
2022-08-21T00:35:45.006Z,99041.38
2022-08-21T00:38:12.995Z,99045.75
2022-08-21T00:40:44.503Z,99047.34
2022-08-21T00:43:16.110Z,99048.03
2022-08-21T00:45:44.141Z,99039.47
2022-08-21T00:48:13.584Z,99031.84
2022-08-21T00:50:45.147Z,99030.94
2022-08-21T00:53:14.292Z,99028.47
2022-08-21T00:55:43.556Z,99017.06
2022-08-21T00:58:14.513Z,99023.00
2022-08-21T01:00:47.533Z,99025.56
2022-08-21T01:03:23.725Z,99024.81
2022-08-21T01:05:52.702Z,99028.34
2022-08-21T01:08:21.819Z,99005.81
2022-08-21T01:10:51.129Z,99026.81
2022-08-21T01:13:28.443Z,99026.03
2022-08-21T01:16:00.272Z,99023.44
2022-08-21T01:18:29.982Z,99021.09
2022-08-21T01:21:05.481Z,99021.09
2022-08-21T01:23:34.439Z,99018.56
2022-08-21T01:26:02.332Z,99014.41
2022-08-21T01:28:34.852Z,99012.88
2022-08-21T01:31:04.818Z,99011.22
2022-08-21T01:33:32.688Z,99015.44
2022-08-21T01:36:00.665Z,99007.09
2022-08-21T01:38:31.049Z,99000.41
2022-08-21T01:40:59.316Z,99009.94
2022-08-21T01:43:32.445Z,99004.84
2022-08-21T01:46:08.023Z,99004.03
2022-08-21T01:48:36.751Z,98992.31
2022-08-21T01:51:05.081Z,98998.13
2022-08-21T01:53:36.612Z,98999.81
2022-08-21T01:56:12.163Z,98983.72
2022-08-21T01:58:42.000Z,98993.78
2022-08-21T02:01:11.133Z,98986.91
2022-08-21T02:03:39.781Z,98976.16
2022-08-21T02:06:09.495Z,98982.94
2022-08-21T02:08:38.941Z,98993.19
2022-08-21T02:11:07.112Z,98981.41
2022-08-21T02:13:34.928Z,98986.47
2022-08-21T02:16:03.720Z,98982.97
2022-08-21T02:18:31.907Z,98985.44
2022-08-21T02:20:59.835Z,98982.88
2022-08-21T02:23:27.762Z,98987.94
2022-08-21T02:25:58.540Z,98981.25
2022-08-21T02:28:27.711Z,98984.44
2022-08-21T02:30:57.436Z,98981.75
2022-08-21T02:33:28.086Z,98980.75
2022-08-21T02:35:57.299Z,98967.97
2022-08-21T02:38:28.933Z,98971.16
2022-08-21T02:40:58.961Z,98973.63
2022-08-21T02:43:28.441Z,98969.38
2022-08-21T02:45:57.084Z,98967.75
2022-08-21T02:48:28.228Z,98963.66
2022-08-21T02:50:58.566Z,98965.56
2022-08-21T02:53:26.795Z,98963.84
2022-08-21T02:55:55.566Z,98974.00
2022-08-21T02:58:28.029Z,98966.34
2022-08-21T03:00:56.363Z,98957.13
2022-08-21T03:03:24.663Z,98964.44
2022-08-21T03:05:53.124Z,98964.31
2022-08-21T03:08:21.794Z,98966.78
2022-08-21T03:10:53.935Z,98970.13
2022-08-21T03:13:22.932Z,98965.88
2022-08-21T03:15:52.380Z,98969.25
2022-08-21T03:18:21.068Z,98972.75
2022-08-21T03:20:49.380Z,98947.84
2022-08-21T03:23:19.584Z,98968.72
2022-08-21T03:25:49.281Z,98975.66
2022-08-21T03:28:20.089Z,98979.94
2022-08-21T03:30:50.863Z,98984.16
2022-08-21T03:33:23.300Z,98979.81
2022-08-21T03:35:59.182Z,98978.91
2022-08-21T03:38:28.124Z,98972.84
2022-08-21T03:40:55.988Z,98976.09
2022-08-21T03:43:23.973Z,98981.19
2022-08-21T03:45:52.635Z,98987.94
2022-08-21T03:48:22.172Z,98980.47
2022-08-21T03:50:50.533Z,98993.97
2022-08-21T03:53:18.803Z,98993.22
2022-08-21T03:55:48.067Z,98992.34
2022-08-21T03:58:17.496Z,98994.06
2022-08-21T04:00:46.420Z,98997.59
2022-08-21T04:03:14.455Z,98999.34
2022-08-21T04:05:46.127Z,99002.00
2022-08-21T04:08:15.798Z,99001.25
2022-08-21T04:10:45.725Z,99004.69
2022-08-21T04:13:13.901Z,99008.09
2022-08-21T04:15:42.137Z,99006.50
2022-08-21T04:18:10.805Z,99009.06
2022-08-21T04:20:39.581Z,99008.19
2022-08-21T04:23:09.184Z,99000.50
2022-08-21T04:25:37.381Z,99016.59
2022-08-21T04:28:05.721Z,99015.97
2022-08-21T04:30:34.190Z,99025.44
2022-08-21T04:33:02.146Z,99006.13
2022-08-21T04:35:30.970Z,99017.09
2022-08-21T04:37:59.523Z,99016.94
2022-08-21T04:40:29.896Z,99013.03
2022-08-21T04:43:00.934Z,99019.19
2022-08-21T04:45:30.637Z,99018.56
2022-08-21T04:48:01.412Z,99006.97
2022-08-21T04:50:33.659Z,99024.63
2022-08-21T04:53:12.534Z,99022.56
2022-08-21T04:55:45.314Z,99022.50
2022-08-21T04:58:18.603Z,99022.56
2022-08-21T05:00:47.765Z,99023.22
2022-08-21T05:03:18.532Z,99025.00
2022-08-21T05:05:46.764Z,99030.91
2022-08-21T05:08:17.841Z,99030.84
2022-08-21T05:10:47.580Z,99032.25
2022-08-21T05:13:16.009Z,99009.44
2022-08-21T05:15:43.964Z,99029.09
2022-08-21T05:18:11.869Z,99035.50
2022-08-21T05:20:40.173Z,99036.84
2022-08-21T05:23:09.908Z,99033.25
2022-08-21T05:25:38.251Z,99043.31
2022-08-21T05:28:08.052Z,99033.94
2022-08-21T05:30:37.155Z,99039.66
2022-08-21T05:33:07.725Z,99041.25
2022-08-21T05:35:36.215Z,99058.19
2022-08-21T05:38:05.554Z,99053.88
2022-08-21T05:40:34.264Z,99038.66
2022-08-21T05:43:02.873Z,99052.72
2022-08-21T05:45:42.564Z,99052.50
2022-08-21T05:48:13.868Z,99046.34
2022-08-21T05:50:42.002Z,99047.09
2022-08-21T05:53:11.240Z,99047.94
2022-08-21T05:55:44.901Z,99054.53
2022-08-21T05:58:13.680Z,99052.59
2022-08-21T06:00:43.428Z,99059.97
2022-08-21T06:03:16.537Z,99065.72
2022-08-21T06:05:44.487Z,99056.31
2022-08-21T06:08:12.375Z,99065.41
2022-08-21T06:10:40.789Z,99050.03
2022-08-21T06:13:09.135Z,99059.34
2022-08-21T06:15:37.094Z,99055.03
2022-08-21T06:18:06.550Z,99056.69
2022-08-21T06:20:34.904Z,99056.53
2022-08-21T06:23:03.699Z,99061.50
2022-08-21T06:25:32.159Z,99059.66
2022-08-21T06:28:03.842Z,99060.34
2022-08-21T06:30:32.061Z,99060.34
2022-08-21T06:33:00.187Z,99062.25
2022-08-21T06:35:30.472Z,99060.47
2022-08-21T06:37:58.842Z,99067.91
2022-08-21T06:40:27.394Z,99063.41
2022-08-21T06:42:59.555Z,99057.38
2022-08-21T06:45:32.291Z,99062.38
2022-08-21T06:48:00.908Z,99064.13
2022-08-21T06:50:31.326Z,99069.03
2022-08-21T06:53:05.075Z,99062.06
2022-08-21T06:55:33.884Z,99062.06
2022-08-21T06:58:01.771Z,99068.94
2022-08-21T07:00:30.140Z,99063.09
2022-08-21T07:02:58.306Z,99072.28
2022-08-21T07:05:28.209Z,99062.22
2022-08-21T07:07:57.930Z,99066.84
2022-08-21T07:10:26.021Z,99069.34
2022-08-21T07:13:00.011Z,99063.31
2022-08-21T07:15:30.456Z,99067.81
2022-08-21T07:17:59.142Z,99067.56
2022-08-21T07:20:28.476Z,99061.19
2022-08-21T07:22:59.296Z,99054.19
2022-08-21T07:25:27.527Z,99070.63
2022-08-21T07:27:56.342Z,99073.41
2022-08-21T07:30:25.081Z,99068.13
2022-08-21T07:32:53.089Z,99065.44
2022-08-21T07:35:21.967Z,99067.16
2022-08-21T07:37:50.688Z,99065.03
2022-08-21T07:40:20.085Z,99063.03
2022-08-21T07:42:50.997Z,99066.41
2022-08-21T07:45:21.756Z,99073.53
2022-08-21T07:47:54.210Z,99070.34
2022-08-21T07:50:25.647Z,99065.44
2022-08-21T07:52:53.697Z,99059.97
2022-08-21T07:55:23.965Z,99058.13
2022-08-21T07:57:52.025Z,99055.25
2022-08-21T08:00:23.396Z,99053.91
2022-08-21T08:02:54.093Z,99051.09
2022-08-21T08:05:26.219Z,99049.06
2022-08-21T08:07:54.168Z,99046.13
2022-08-21T08:10:24.101Z,99050.25
2022-08-21T08:12:53.252Z,99052.28
2022-08-21T08:15:24.781Z,99052.66
2022-08-21T08:17:53.349Z,99035.97
2022-08-21T08:20:22.508Z,99040.03
2022-08-21T08:22:50.989Z,99045.75
2022-08-21T08:25:20.185Z,99037.91
2022-08-21T08:27:49.600Z,99033.13
2022-08-21T08:30:20.188Z,99046.38
2022-08-21T08:32:49.159Z,99045.16
2022-08-21T08:35:17.549Z,99037.84
2022-08-21T08:37:47.354Z,99034.00
2022-08-21T08:40:27.560Z,99034.34
2022-08-21T08:42:57.298Z,99037.91
2022-08-21T08:45:27.227Z,99034.47
2022-08-21T08:47:59.400Z,99033.13
2022-08-21T08:50:31.807Z,99032.19
2022-08-21T08:53:05.921Z,99032.41
2022-08-21T08:55:37.749Z,99034.41
2022-08-21T08:58:07.530Z,99015.00
2022-08-21T09:00:35.656Z,99021.66
2022-08-21T09:03:05.065Z,99019.97
2022-08-21T09:05:44.340Z,99019.31
2022-08-21T09:08:34.485Z,99018.84
2022-08-21T09:11:05.588Z,99013.91
2022-08-21T09:13:50.354Z,99012.00
2022-08-21T09:16:32.032Z,99008.41
2022-08-21T09:19:09.298Z,99006.88
2022-08-21T09:21:45.128Z,99010.00
2022-08-21T09:24:27.659Z,98999.78
2022-08-21T09:27:03.421Z,99007.06
2022-08-21T09:29:37.656Z,99009.47
2022-08-21T09:32:16.632Z,99009.13
2022-08-21T09:34:59.123Z,99009.22
2022-08-21T09:37:29.861Z,99005.59
2022-08-21T09:39:59.482Z,99009.47
2022-08-21T09:42:32.992Z,99000.94
2022-08-21T09:45:14.319Z,99007.22
2022-08-21T09:47:42.783Z,99002.59
2022-08-21T09:50:15.175Z,98996.25
2022-08-21T09:52:49.814Z,99004.50
2022-08-21T09:55:50.113Z,98996.50
2022-08-21T09:58:19.893Z,98992.88
2022-08-21T10:00:59.655Z,98993.53
2022-08-21T10:03:28.700Z,98991.75
2022-08-21T10:06:00.600Z,98994.31
2022-08-21T10:08:30.305Z,98982.78
2022-08-21T10:11:03.890Z,98982.38
2022-08-21T10:13:50.013Z,98986.06
2022-08-21T10:16:30.317Z,98980.22
2022-08-21T10:19:11.349Z,98984.63
2022-08-21T10:21:49.216Z,98987.84
2022-08-21T10:24:31.122Z,98979.66
2022-08-21T10:27:13.227Z,98987.00
2022-08-21T10:29:49.747Z,98991.09
2022-08-21T10:32:32.115Z,98981.78
2022-08-21T10:35:09.341Z,98986.09
2022-08-21T10:37:48.109Z,98985.47
2022-08-21T10:40:25.802Z,98984.81
2022-08-21T10:43:05.724Z,98995.16
2022-08-21T10:45:41.894Z,98991.53
2022-08-21T10:48:22.117Z,98992.47
2022-08-21T10:50:54.624Z,98986.41
2022-08-21T10:53:48.151Z,98984.75
2022-08-21T10:56:21.171Z,98991.16
2022-08-21T10:59:04.197Z,98994.31
2022-08-21T11:01:40.953Z,98996.97
2022-08-21T11:04:18.252Z,99003.06
2022-08-21T11:06:54.279Z,99007.06
2022-08-21T11:09:26.140Z,98997.97
2022-08-21T11:12:11.480Z,99001.88
2022-08-21T11:14:50.428Z,98991.97
2022-08-21T11:17:23.026Z,98991.53
2022-08-21T11:19:56.074Z,98996.41
2022-08-21T11:22:30.585Z,99004.16
2022-08-21T11:25:02.959Z,99007.03
2022-08-21T11:27:39.910Z,99005.47
2022-08-21T11:30:09.442Z,99004.59
2022-08-21T11:33:13.216Z,98998.44
2022-08-21T11:35:49.706Z,98999.28
2022-08-21T11:38:31.187Z,99007.03
2022-08-21T11:41:30.608Z,99001.84
2022-08-21T11:44:10.424Z,99009.50
2022-08-21T11:46:46.886Z,98997.81
2022-08-21T11:49:30.369Z,99010.56
2022-08-21T11:52:10.220Z,99007.81
2022-08-21T11:54:44.286Z,99006.84
2022-08-21T11:57:19.485Z,99011.00
2022-08-21T11:59:54.943Z,98999.72
2022-08-21T12:02:26.615Z,99004.78
2022-08-21T12:07:36.676Z,99010.59
2022-08-21T12:10:09.365Z,99001.19
2022-08-21T12:12:39.708Z,99000.41
2022-08-21T12:15:30.833Z,98992.06
2022-08-21T12:18:04.423Z,98994.88
2022-08-21T12:20:45.088Z,99000.41
2022-08-21T12:23:28.525Z,98988.31
2022-08-21T12:26:13.048Z,98987.31
2022-08-21T12:28:41.839Z,98993.19
2022-08-21T12:31:20.312Z,98991.88
2022-08-21T12:33:56.009Z,98991.41
2022-08-21T12:36:27.755Z,98992.41
2022-08-21T12:39:01.665Z,98991.59
2022-08-21T12:41:33.681Z,98990.66
2022-08-21T12:44:06.758Z,98988.84
2022-08-21T12:46:39.344Z,98982.34
2022-08-21T12:49:15.599Z,98982.28
2022-08-21T12:51:56.212Z,98975.16
2022-08-21T12:54:29.033Z,98976.16
2022-08-21T12:57:02.155Z,98972.91
2022-08-21T12:59:31.451Z,98972.19
2022-08-21T13:02:04.658Z,98965.22
2022-08-21T13:04:39.769Z,98980.97
2022-08-21T13:07:11.867Z,98969.00
2022-08-21T13:09:49.677Z,98974.88
2022-08-21T13:12:19.704Z,98984.09
2022-08-21T13:14:50.625Z,98974.16
2022-08-21T13:17:23.537Z,98974.81
2022-08-21T13:19:59.650Z,98980.94
2022-08-21T13:22:35.165Z,98981.38
2022-08-21T13:25:11.214Z,98977.94
2022-08-21T13:27:39.141Z,98983.97
2022-08-21T13:30:12.029Z,98988.25
2022-08-21T13:32:44.579Z,98992.75
2022-08-21T13:35:17.268Z,98974.44
2022-08-21T13:37:47.561Z,98983.94
2022-08-21T13:40:19.236Z,98974.00
2022-08-21T13:42:49.259Z,98975.88
2022-08-21T13:45:24.940Z,98976.75
2022-08-21T13:47:54.045Z,98966.09
2022-08-21T13:50:25.412Z,98971.97
2022-08-21T13:53:01.916Z,98967.91
2022-08-21T13:55:40.348Z,98973.91
2022-08-21T13:58:09.336Z,98973.91
2022-08-21T14:00:45.416Z,98970.00
2022-08-21T14:03:32.691Z,98979.63
2022-08-21T14:06:01.023Z,98978.13
2022-08-21T14:08:34.893Z,98986.00
2022-08-21T14:11:06.265Z,98980.41
2022-08-21T14:13:41.667Z,98984.75
2022-08-21T14:16:17.858Z,98984.16
2022-08-21T14:18:49.028Z,98982.63
2022-08-21T14:21:29.674Z,98986.78
2022-08-21T14:24:14.108Z,98993.72
2022-08-21T14:26:51.849Z,98994.56
2022-08-21T14:29:24.213Z,99003.19
2022-08-21T14:31:53.307Z,98980.47
2022-08-21T14:34:21.781Z,98994.06
2022-08-21T14:36:51.498Z,98995.13
2022-08-21T14:39:19.577Z,99006.34
2022-08-21T14:41:49.839Z,99014.13
2022-08-21T14:44:20.048Z,99003.34
2022-08-21T14:46:55.979Z,99006.84
2022-08-21T14:49:28.686Z,99007.19
2022-08-21T14:51:59.005Z,98993.38
2022-08-21T14:54:31.737Z,99018.38
2022-08-21T14:57:05.735Z,99019.41
2022-08-21T14:59:34.741Z,99008.69
2022-08-21T15:02:04.992Z,99026.25
2022-08-21T15:04:32.985Z,99022.09
2022-08-21T15:07:00.981Z,99023.84
2022-08-21T15:09:29.328Z,99028.44
2022-08-21T15:12:00.624Z,99027.03
2022-08-21T15:14:32.653Z,99012.22
2022-08-21T15:17:00.910Z,99023.41
2022-08-21T15:19:30.496Z,99013.63
2022-08-21T15:21:58.580Z,99015.00
2022-08-21T15:24:26.923Z,99026.38
2022-08-21T15:26:56.998Z,99019.00
2022-08-21T15:29:25.049Z,99015.66
2022-08-21T15:32:04.979Z,99019.09
2022-08-21T15:34:33.181Z,99025.09
2022-08-21T15:37:01.111Z,99022.72
2022-08-21T15:39:30.082Z,99021.31
2022-08-21T15:42:00.152Z,99026.81
2022-08-21T15:44:42.045Z,99018.59
2022-08-21T15:47:18.982Z,99020.31
2022-08-21T15:49:47.516Z,99016.88
2022-08-21T15:52:16.860Z,99016.91
2022-08-21T15:54:44.739Z,99018.44
2022-08-21T15:57:15.673Z,99015.84
2022-08-21T15:59:45.638Z,99026.63
2022-08-21T16:02:18.822Z,99027.38
2022-08-21T16:04:47.188Z,99038.28
2022-08-21T16:07:16.009Z,99044.09
2022-08-21T16:09:48.500Z,99028.81
2022-08-21T16:12:29.501Z,99037.25
2022-08-21T16:15:29.077Z,99038.88
2022-08-21T16:18:07.020Z,99034.56
2022-08-21T16:20:40.576Z,99038.84
2022-08-21T16:23:15.964Z,99038.94
2022-08-21T16:25:44.568Z,99040.59
2022-08-21T16:28:16.669Z,99033.03
2022-08-21T16:30:46.695Z,99047.44
2022-08-21T16:33:23.603Z,99043.19
2022-08-21T16:35:51.811Z,99027.09
2022-08-21T16:38:20.877Z,99042.41
2022-08-21T16:40:57.033Z,99035.75
2022-08-21T16:43:36.216Z,99042.53
2022-08-21T16:46:04.857Z,99038.41
2022-08-21T16:48:34.105Z,99044.41
2022-08-21T16:51:01.955Z,99047.81
2022-08-21T16:53:29.904Z,99046.19
2022-08-21T16:55:58.539Z,99045.41
2022-08-21T16:58:35.136Z,99043.88
2022-08-21T17:01:09.671Z,99034.69
2022-08-21T17:03:41.557Z,99047.28
2022-08-21T17:06:10.173Z,99029.50
2022-08-21T17:08:38.401Z,99033.75
2022-08-21T17:11:08.469Z,99025.47
2022-08-21T17:13:36.573Z,99033.81
2022-08-21T17:16:10.725Z,99037.19
2022-08-21T17:18:47.758Z,99036.31
2022-08-21T17:21:22.455Z,99036.41
2022-08-21T17:23:51.149Z,99035.47
2022-08-21T17:26:19.520Z,99038.81
2022-08-21T17:28:50.066Z,99026.97
2022-08-21T17:31:20.912Z,99042.16
2022-08-21T17:33:53.978Z,99047.28
2022-08-21T17:36:26.297Z,99046.47
2022-08-21T17:38:54.412Z,99043.94
2022-08-21T17:41:23.014Z,99043.09
2022-08-21T17:43:51.907Z,99039.81
2022-08-21T17:46:23.509Z,99049.00
2022-08-21T17:48:53.199Z,99052.34
2022-08-21T17:51:21.578Z,99044.81
2022-08-21T17:53:49.492Z,99049.94
2022-08-21T17:56:19.185Z,99045.66
2022-08-21T17:58:49.998Z,99048.19
2022-08-21T18:01:18.367Z,99045.75
2022-08-21T18:03:47.048Z,99048.31
2022-08-21T18:06:18.198Z,99030.75
2022-08-21T18:08:46.779Z,99042.47
2022-08-21T18:11:23.820Z,99042.53
2022-08-21T18:13:54.839Z,99060.25
2022-08-21T18:16:23.904Z,99056.09
2022-08-21T18:18:52.756Z,99064.56
2022-08-21T18:21:22.355Z,99065.44
2022-08-21T18:23:50.639Z,99062.13
2022-08-21T18:26:26.115Z,99068.84
2022-08-21T18:28:55.637Z,99064.72
2022-08-21T18:31:23.610Z,99069.81
2022-08-21T18:33:58.082Z,99053.06
2022-08-21T18:36:29.375Z,99069.81
2022-08-21T18:39:13.586Z,99068.16
2022-08-21T18:41:47.061Z,99071.53
2022-08-21T18:44:17.081Z,99071.53
2022-08-21T18:46:49.836Z,99076.59
2022-08-21T18:49:18.684Z,99067.34
2022-08-21T18:51:48.207Z,99069.97
2022-08-21T18:54:16.436Z,99082.66
2022-08-21T18:56:46.276Z,99070.88
2022-08-21T18:59:15.427Z,99078.47
2022-08-21T19:01:43.624Z,99068.28
2022-08-21T19:04:41.029Z,99070.03
2022-08-21T19:07:05.512Z,99074.28
2022-08-21T19:09:33.671Z,99069.28
2022-08-21T19:12:04.164Z,99086.16
2022-08-21T19:14:33.184Z,99066.72
2022-08-21T19:17:01.716Z,99077.63
2022-08-21T19:19:29.699Z,99068.31
2022-08-21T19:21:58.542Z,99069.25
2022-08-21T19:24:29.749Z,99062.53
2022-08-21T19:26:59.932Z,99072.63
2022-08-21T19:29:34.688Z,99076.88
2022-08-21T19:32:05.463Z,99065.09
2022-08-21T19:34:34.837Z,99065.97
2022-08-21T19:37:03.894Z,99064.22
2022-08-21T19:39:46.478Z,99061.69
2022-08-21T19:42:21.288Z,99040.72
2022-08-21T19:44:53.048Z,99061.75
2022-08-21T19:47:29.339Z,99049.91
2022-08-21T19:50:03.210Z,99054.97
2022-08-21T19:52:32.453Z,99038.94
2022-08-21T19:55:05.204Z,99046.63
2022-08-21T19:57:33.788Z,99044.91
2022-08-21T20:00:01.864Z,99050.81
2022-08-21T20:02:29.733Z,99055.06
2022-08-21T20:04:57.688Z,99043.28
2022-08-21T20:10:16.441Z,99044.09
2022-08-21T20:12:50.590Z,99055.97
2022-08-21T20:15:22.450Z,99036.59
2022-08-21T20:17:51.572Z,99040.84
2022-08-21T20:20:20.952Z,99049.19
2022-08-21T20:22:48.938Z,99051.72
2022-08-21T20:25:26.094Z,99044.97
2022-08-21T20:27:54.033Z,99049.16
2022-08-21T20:30:22.803Z,99043.25
2022-08-21T20:32:51.013Z,99060.94
2022-08-21T20:35:19.768Z,99055.88
2022-08-21T20:37:58.493Z,99050.00
2022-08-21T20:40:32.825Z,99051.69
2022-08-21T20:43:02.438Z,99056.78
2022-08-21T20:45:33.677Z,99052.59
2022-08-21T20:48:05.225Z,99048.38
2022-08-21T20:53:43.154Z,99036.56
2022-08-21T20:56:18.048Z,99044.22
2022-08-21T20:58:53.160Z,99044.31
2022-08-21T21:01:21.486Z,99047.75
2022-08-21T21:03:55.589Z,99045.28
2022-08-21T21:06:29.365Z,99040.25
2022-08-21T21:09:04.818Z,99050.41
2022-08-21T21:14:40.691Z,99055.44
2022-08-21T21:17:17.717Z,99049.56
2022-08-21T21:19:59.698Z,99056.38
2022-08-21T21:22:32.413Z,99052.22
2022-08-21T21:25:07.571Z,99053.88
2022-08-21T21:27:40.056Z,99058.19
2022-08-21T21:30:12.469Z,99054.84
2022-08-21T21:32:42.540Z,99047.38
2022-08-21T21:35:15.653Z,99059.25
2022-08-21T21:37:48.956Z,99063.50
2022-08-21T21:40:38.663Z,99061.88
2022-08-21T21:43:33.233Z,99050.97
2022-08-21T21:46:16.967Z,99055.19
2022-08-21T21:49:08.132Z,99042.50
2022-08-21T21:55:03.451Z,99066.16
2022-08-21T21:57:55.084Z,99059.44
2022-08-21T22:00:26.977Z,99056.06
2022-08-21T22:03:04.115Z,99061.94
2022-08-21T22:06:03.822Z,99049.28
2022-08-21T22:08:54.313Z,99052.59
2022-08-21T22:11:30.245Z,99050.09
2022-08-21T22:14:05.965Z,99058.53
2022-08-21T22:16:39.297Z,99056.84
2022-08-21T22:19:18.279Z,99048.41
2022-08-21T22:21:52.946Z,99045.84
2022-08-21T22:24:26.724Z,99040.78
2022-08-21T22:27:01.787Z,99038.28
2022-08-21T22:29:44.863Z,99038.31
2022-08-21T22:32:24.626Z,99042.50
2022-08-21T22:35:04.451Z,99031.53
2022-08-21T22:37:39.216Z,99041.66
2022-08-21T22:40:10.335Z,99024.78
2022-08-21T22:42:39.267Z,99028.19
2022-08-21T22:45:12.163Z,99019.81
2022-08-21T22:47:45.101Z,99017.25
2022-08-21T22:50:21.818Z,99014.75
2022-08-21T22:52:55.034Z,99015.59
2022-08-21T22:55:39.755Z,99012.22
2022-08-21T22:58:13.752Z,99010.56
2022-08-21T23:00:53.003Z,99004.59
2022-08-21T23:03:32.689Z,99009.56
2022-08-21T23:06:12.677Z,99005.31
2022-08-21T23:08:41.294Z,99009.47
2022-08-21T23:11:14.412Z,98999.31
2022-08-21T23:13:45.589Z,99004.34
2022-08-21T23:16:30.673Z,99004.34
2022-08-21T23:19:09.228Z,99012.59
2022-08-21T23:21:46.372Z,99006.50
2022-08-21T23:24:37.595Z,99005.47
2022-08-21T23:27:25.129Z,99000.28
2022-08-21T23:30:07.283Z,99009.50
2022-08-21T23:33:11.201Z,99011.06
2022-08-21T23:36:05.028Z,99016.91
2022-08-21T23:38:54.551Z,99010.09
2022-08-21T23:41:34.862Z,99012.59
2022-08-21T23:44:18.349Z,99021.00
2022-08-21T23:47:10.134Z,99006.69
2022-08-21T23:49:49.064Z,98996.56
2022-08-21T23:52:34.184Z,98992.31
2022-08-21T23:55:25.565Z,98993.28
2022-08-21T23:58:07.228Z,99011.84
